sensor_id;sensor_type;location;lat;lon;timestamp;pressure;altitude;pressure_sealevel;temperature;humidity
22261;BME280;11299;43.202;27.920;2022-09-09T00:01:10;101457.50;;;20.97;100.00
22261;BME280;11299;43.202;27.920;2022-09-09T00:03:53;101457.47;;;21.02;100.00
22261;BME280;11299;43.202;27.920;2022-09-09T00:11:47;101457.69;;;21.06;100.00
22261;BME280;11299;43.202;27.920;2022-09-09T00:17:01;101444.31;;;20.79;100.00
22261;BME280;11299;43.202;27.920;2022-09-09T00:19:45;101441.34;;;21.08;100.00
22261;BME280;11299;43.202;27.920;2022-09-09T00:22:16;101435.72;;;21.08;100.00
22261;BME280;11299;43.202;27.920;2022-09-09T00:25:26;101434.13;;;21.02;100.00
22261;BME280;11299;43.202;27.920;2022-09-09T00:27:50;101409.03;;;20.87;100.00
22261;BME280;11299;43.202;27.920;2022-09-09T00:32:53;101419.75;;;20.85;100.00
22261;BME280;11299;43.202;27.920;2022-09-09T00:35:25;101463.47;;;20.77;100.00
22261;BME280;11299;43.202;27.920;2022-09-09T00:38:00;101440.28;;;20.67;100.00
22261;BME280;11299;43.202;27.920;2022-09-09T00:40:35;101407.16;;;20.26;100.00
22261;BME280;11299;43.202;27.920;2022-09-09T00:43:29;101432.00;;;20.75;100.00
22261;BME280;11299;43.202;27.920;2022-09-09T00:48:54;101439.22;;;20.63;100.00
22261;BME280;11299;43.202;27.920;2022-09-09T00:54:35;101426.44;;;20.51;100.00
22261;BME280;11299;43.202;27.920;2022-09-09T01:05:29;101444.22;;;20.47;100.00
22261;BME280;11299;43.202;27.920;2022-09-09T01:07:57;101386.47;;;20.17;100.00
22261;BME280;11299;43.202;27.920;2022-09-09T01:10:44;101412.56;;;20.41;100.00
22261;BME280;11299;43.202;27.920;2022-09-09T01:13:22;101398.41;;;20.46;100.00
22261;BME280;11299;43.202;27.920;2022-09-09T01:15:50;101397.34;;;20.42;100.00
22261;BME280;11299;43.202;27.920;2022-09-09T01:18:21;101403.06;;;20.37;100.00
22261;BME280;11299;43.202;27.920;2022-09-09T01:26:38;101329.53;;;19.69;100.00
22261;BME280;11299;43.202;27.920;2022-09-09T01:29:08;101431.28;;;20.27;100.00
22261;BME280;11299;43.202;27.920;2022-09-09T01:31:55;101395.78;;;19.89;100.00
22261;BME280;11299;43.202;27.920;2022-09-09T01:34:22;101422.47;;;20.10;100.00
22261;BME280;11299;43.202;27.920;2022-09-09T01:37:02;101424.94;;;20.17;100.00
22261;BME280;11299;43.202;27.920;2022-09-09T01:39:30;101305.53;;;19.35;100.00
22261;BME280;11299;43.202;27.920;2022-09-09T01:41:56;101385.38;;;19.95;100.00
22261;BME280;11299;43.202;27.920;2022-09-09T01:44:23;101422.94;;;20.22;100.00
22261;BME280;11299;43.202;27.920;2022-09-09T01:46:50;101271.34;;;19.33;100.00
22261;BME280;11299;43.202;27.920;2022-09-09T01:49:16;101376.69;;;19.91;100.00
22261;BME280;11299;43.202;27.920;2022-09-09T01:51:43;101397.72;;;19.94;100.00
22261;BME280;11299;43.202;27.920;2022-09-09T01:54:09;101291.25;;;19.31;100.00
22261;BME280;11299;43.202;27.920;2022-09-09T01:59:59;101413.34;;;19.76;100.00
22261;BME280;11299;43.202;27.920;2022-09-09T02:02:23;101453.00;;;19.93;100.00
22261;BME280;11299;43.202;27.920;2022-09-09T02:04:55;101450.28;;;19.88;100.00
22261;BME280;11299;43.202;27.920;2022-09-09T02:07:40;101430.59;;;19.64;100.00
22261;BME280;11299;43.202;27.920;2022-09-09T02:13:08;101439.94;;;19.60;100.00
22261;BME280;11299;43.202;27.920;2022-09-09T02:15:38;101203.72;;;18.30;100.00
22261;BME280;11299;43.202;27.920;2022-09-09T02:18:08;101412.44;;;19.33;100.00
22261;BME280;11299;43.202;27.920;2022-09-09T02:20:39;101429.47;;;19.65;100.00
22261;BME280;11299;43.202;27.920;2022-09-09T02:23:09;101396.97;;;19.36;100.00
22261;BME280;11299;43.202;27.920;2022-09-09T02:25:37;101442.19;;;19.58;100.00
22261;BME280;11299;43.202;27.920;2022-09-09T02:28:06;101435.97;;;19.61;100.00
22261;BME280;11299;43.202;27.920;2022-09-09T02:30:34;101425.53;;;19.66;100.00
22261;BME280;11299;43.202;27.920;2022-09-09T02:33:04;101435.31;;;19.45;100.00
22261;BME280;11299;43.202;27.920;2022-09-09T02:35:32;101395.03;;;19.31;100.00
22261;BME280;11299;43.202;27.920;2022-09-09T02:38:04;101392.09;;;19.46;100.00
22261;BME280;11299;43.202;27.920;2022-09-09T02:40:32;101425.78;;;19.70;100.00
22261;BME280;11299;43.202;27.920;2022-09-09T02:42:57;101427.63;;;19.56;100.00
22261;BME280;11299;43.202;27.920;2022-09-09T02:45:30;101390.16;;;19.42;100.00
22261;BME280;11299;43.202;27.920;2022-09-09T02:48:12;101442.38;;;19.66;100.00
22261;BME280;11299;43.202;27.920;2022-09-09T02:51:48;101434.06;;;19.56;100.00
22261;BME280;11299;43.202;27.920;2022-09-09T02:53:49;101446.94;;;19.62;100.00
22261;BME280;11299;43.202;27.920;2022-09-09T02:56:21;101395.31;;;19.30;100.00
22261;BME280;11299;43.202;27.920;2022-09-09T02:58:49;101414.28;;;19.43;100.00
22261;BME280;11299;43.202;27.920;2022-09-09T03:01:17;101394.13;;;19.41;100.00
22261;BME280;11299;43.202;27.920;2022-09-09T03:03:44;101414.78;;;19.50;100.00
22261;BME280;11299;43.202;27.920;2022-09-09T03:06:11;101427.13;;;19.49;100.00
22261;BME280;11299;43.202;27.920;2022-09-09T03:08:37;101371.88;;;19.21;100.00
22261;BME280;11299;43.202;27.920;2022-09-09T03:11:03;101416.63;;;19.31;100.00
22261;BME280;11299;43.202;27.920;2022-09-09T03:13:29;101376.63;;;19.20;100.00
22261;BME280;11299;43.202;27.920;2022-09-09T03:15:54;101426.16;;;19.30;100.00
22261;BME280;11299;43.202;27.920;2022-09-09T03:18:20;101338.75;;;18.94;100.00
22261;BME280;11299;43.202;27.920;2022-09-09T03:20:46;101419.97;;;19.38;100.00
22261;BME280;11299;43.202;27.920;2022-09-09T03:23:14;101447.03;;;19.52;100.00
22261;BME280;11299;43.202;27.920;2022-09-09T03:25:46;101401.88;;;19.20;100.00
22261;BME280;11299;43.202;27.920;2022-09-09T03:28:11;101448.91;;;19.57;100.00
22261;BME280;11299;43.202;27.920;2022-09-09T03:30:37;101346.94;;;18.86;100.00
22261;BME280;11299;43.202;27.920;2022-09-09T03:33:02;101449.19;;;19.60;100.00
22261;BME280;11299;43.202;27.920;2022-09-09T03:35:29;101435.19;;;19.55;100.00
22261;BME280;11299;43.202;27.920;2022-09-09T03:37:55;101439.47;;;19.48;100.00
22261;BME280;11299;43.202;27.920;2022-09-09T03:40:21;101415.81;;;19.25;100.00
22261;BME280;11299;43.202;27.920;2022-09-09T03:42:46;101425.63;;;19.28;100.00
22261;BME280;11299;43.202;27.920;2022-09-09T03:45:13;101457.06;;;19.58;100.00
22261;BME280;11299;43.202;27.920;2022-09-09T03:47:39;101429.44;;;19.42;100.00
22261;BME280;11299;43.202;27.920;2022-09-09T03:50:06;101444.84;;;19.44;100.00
22261;BME280;11299;43.202;27.920;2022-09-09T03:52:39;101382.56;;;19.14;100.00
22261;BME280;11299;43.202;27.920;2022-09-09T03:55:06;101443.19;;;19.43;100.00
22261;BME280;11299;43.202;27.920;2022-09-09T03:57:32;101249.38;;;18.25;100.00
22261;BME280;11299;43.202;27.920;2022-09-09T04:00:02;101411.28;;;19.34;100.00
22261;BME280;11299;43.202;27.920;2022-09-09T04:02:28;101342.09;;;18.96;100.00
22261;BME280;11299;43.202;27.920;2022-09-09T04:04:53;101420.38;;;19.50;100.00
22261;BME280;11299;43.202;27.920;2022-09-09T04:07:19;101455.84;;;19.64;100.00
22261;BME280;11299;43.202;27.920;2022-09-09T04:09:44;101430.31;;;19.66;100.00
22261;BME280;11299;43.202;27.920;2022-09-09T04:12:11;101458.47;;;19.56;100.00
22261;BME280;11299;43.202;27.920;2022-09-09T04:14:38;101418.06;;;19.57;100.00
22261;BME280;11299;43.202;27.920;2022-09-09T04:17:04;101438.69;;;19.71;100.00
22261;BME280;11299;43.202;27.920;2022-09-09T04:19:32;101447.88;;;19.77;100.00
22261;BME280;11299;43.202;27.920;2022-09-09T04:21:57;101436.00;;;19.85;100.00
22261;BME280;11299;43.202;27.920;2022-09-09T04:24:23;101417.84;;;19.77;100.00
22261;BME280;11299;43.202;27.920;2022-09-09T04:26:49;101462.34;;;19.89;100.00
22261;BME280;11299;43.202;27.920;2022-09-09T04:29:15;101459.91;;;20.06;100.00
22261;BME280;11299;43.202;27.920;2022-09-09T04:31:41;101413.25;;;19.86;100.00
22261;BME280;11299;43.202;27.920;2022-09-09T04:34:08;101437.13;;;20.07;100.00
22261;BME280;11299;43.202;27.920;2022-09-09T04:36:34;101455.91;;;20.35;100.00
22261;BME280;11299;43.202;27.920;2022-09-09T04:39:01;101452.63;;;20.28;100.00
22261;BME280;11299;43.202;27.920;2022-09-09T04:41:27;101413.47;;;20.13;100.00
22261;BME280;11299;43.202;27.920;2022-09-09T04:43:54;101418.38;;;20.26;100.00
22261;BME280;11299;43.202;27.920;2022-09-09T04:46:21;101452.56;;;20.71;100.00
22261;BME280;11299;43.202;27.920;2022-09-09T04:48:48;101459.34;;;20.88;100.00
22261;BME280;11299;43.202;27.920;2022-09-09T04:51:14;101430.38;;;20.88;100.00
22261;BME280;11299;43.202;27.920;2022-09-09T04:53:40;101442.31;;;21.17;100.00
22261;BME280;11299;43.202;27.920;2022-09-09T04:56:11;101441.44;;;21.35;100.00
22261;BME280;11299;43.202;27.920;2022-09-09T04:58:38;101413.13;;;21.45;100.00
22261;BME280;11299;43.202;27.920;2022-09-09T05:01:09;101447.38;;;21.79;100.00
22261;BME280;11299;43.202;27.920;2022-09-09T05:03:35;101436.03;;;21.84;100.00
22261;BME280;11299;43.202;27.920;2022-09-09T05:06:08;101434.06;;;21.98;100.00
22261;BME280;11299;43.202;27.920;2022-09-09T05:08:36;101458.47;;;22.16;100.00
22261;BME280;11299;43.202;27.920;2022-09-09T05:11:02;101447.63;;;22.23;100.00
22261;BME280;11299;43.202;27.920;2022-09-09T05:13:28;101430.28;;;22.16;100.00
22261;BME280;11299;43.202;27.920;2022-09-09T05:15:54;101446.78;;;22.23;100.00
22261;BME280;11299;43.202;27.920;2022-09-09T05:18:20;101327.22;;;21.75;100.00
22261;BME280;11299;43.202;27.920;2022-09-09T05:20:48;101434.00;;;22.53;100.00
22261;BME280;11299;43.202;27.920;2022-09-09T05:23:14;101449.28;;;22.65;100.00
22261;BME280;11299;43.202;27.920;2022-09-09T05:25:40;101452.38;;;22.64;100.00
22261;BME280;11299;43.202;27.920;2022-09-09T05:28:08;101443.72;;;22.96;100.00
22261;BME280;11299;43.202;27.920;2022-09-09T05:30:34;101399.47;;;22.83;100.00
22261;BME280;11299;43.202;27.920;2022-09-09T05:32:59;101432.72;;;23.30;100.00
22261;BME280;11299;43.202;27.920;2022-09-09T05:35:27;101394.78;;;23.22;100.00
22261;BME280;11299;43.202;27.920;2022-09-09T05:37:52;101422.72;;;23.46;100.00
22261;BME280;11299;43.202;27.920;2022-09-09T05:40:18;101386.81;;;23.38;100.00
22261;BME280;11299;43.202;27.920;2022-09-09T05:42:44;101426.28;;;23.60;100.00
22261;BME280;11299;43.202;27.920;2022-09-09T05:45:09;101433.19;;;23.76;100.00
22261;BME280;11299;43.202;27.920;2022-09-09T05:47:35;101421.72;;;23.81;100.00
22261;BME280;11299;43.202;27.920;2022-09-09T05:50:03;101422.06;;;23.80;100.00
22261;BME280;11299;43.202;27.920;2022-09-09T05:52:29;101446.19;;;23.86;100.00
22261;BME280;11299;43.202;27.920;2022-09-09T05:54:54;101438.66;;;24.03;100.00
22261;BME280;11299;43.202;27.920;2022-09-09T05:57:22;101420.25;;;24.14;100.00
22261;BME280;11299;43.202;27.920;2022-09-09T05:59:47;101349.53;;;23.58;100.00
22261;BME280;11299;43.202;27.920;2022-09-09T06:02:13;101408.94;;;24.14;100.00
22261;BME280;11299;43.202;27.920;2022-09-09T06:04:39;101419.63;;;24.35;100.00
22261;BME280;11299;43.202;27.920;2022-09-09T06:07:05;101428.47;;;24.59;100.00
22261;BME280;11299;43.202;27.920;2022-09-09T06:09:30;101312.69;;;24.11;100.00
22261;BME280;11299;43.202;27.920;2022-09-09T06:11:56;101410.84;;;24.70;100.00
22261;BME280;11299;43.202;27.920;2022-09-09T06:14:23;101415.50;;;24.66;100.00
22261;BME280;11299;43.202;27.920;2022-09-09T06:16:50;101416.22;;;24.72;100.00
22261;BME280;11299;43.202;27.920;2022-09-09T06:19:16;101421.66;;;24.68;100.00
22261;BME280;11299;43.202;27.920;2022-09-09T06:21:42;101392.38;;;24.56;100.00
22261;BME280;11299;43.202;27.920;2022-09-09T06:24:09;101394.72;;;24.45;100.00
22261;BME280;11299;43.202;27.920;2022-09-09T06:26:37;101437.69;;;24.73;100.00
22261;BME280;11299;43.202;27.920;2022-09-09T06:29:06;101438.53;;;24.90;100.00
22261;BME280;11299;43.202;27.920;2022-09-09T06:31:34;101428.03;;;24.74;100.00
22261;BME280;11299;43.202;27.920;2022-09-09T06:34:04;101432.69;;;24.78;100.00
22261;BME280;11299;43.202;27.920;2022-09-09T06:36:36;101313.84;;;24.18;100.00
22261;BME280;11299;43.202;27.920;2022-09-09T06:39:02;101445.88;;;24.83;100.00
22261;BME280;11299;43.202;27.920;2022-09-09T06:41:30;101450.66;;;24.91;100.00
22261;BME280;11299;43.202;27.920;2022-09-09T06:43:56;101455.00;;;24.97;100.00
22261;BME280;11299;43.202;27.920;2022-09-09T06:46:26;101447.31;;;24.72;100.00
22261;BME280;11299;43.202;27.920;2022-09-09T06:48:53;101457.16;;;24.91;100.00
22261;BME280;11299;43.202;27.920;2022-09-09T06:51:21;101455.00;;;24.97;100.00
22261;BME280;11299;43.202;27.920;2022-09-09T06:53:50;101358.13;;;24.49;100.00
22261;BME280;11299;43.202;27.920;2022-09-09T06:58:42;101454.16;;;25.31;100.00
22261;BME280;11299;43.202;27.920;2022-09-09T07:01:27;101457.66;;;25.19;100.00
22261;BME280;11299;43.202;27.920;2022-09-09T07:03:55;101432.84;;;25.16;100.00
22261;BME280;11299;43.202;27.920;2022-09-09T07:06:26;101436.16;;;25.27;100.00
22261;BME280;11299;43.202;27.920;2022-09-09T07:08:59;101455.84;;;25.40;100.00
22261;BME280;11299;43.202;27.920;2022-09-09T07:11:31;101418.53;;;25.21;100.00
22261;BME280;11299;43.202;27.920;2022-09-09T07:13:58;101453.81;;;25.58;100.00
22261;BME280;11299;43.202;27.920;2022-09-09T07:16:24;101444.81;;;25.56;100.00
22261;BME280;11299;43.202;27.920;2022-09-09T07:18:53;101513.66;;;25.39;100.00
22261;BME280;11299;43.202;27.920;2022-09-09T07:21:23;101429.16;;;25.58;100.00
22261;BME280;11299;43.202;27.920;2022-09-09T07:23:51;101425.63;;;25.61;100.00
22261;BME280;11299;43.202;27.920;2022-09-09T07:26:19;101476.78;;;25.73;100.00
22261;BME280;11299;43.202;27.920;2022-09-09T07:28:45;101448.44;;;25.73;100.00
22261;BME280;11299;43.202;27.920;2022-09-09T07:31:19;101468.59;;;25.80;100.00
22261;BME280;11299;43.202;27.920;2022-09-09T07:33:46;101442.31;;;25.54;100.00
22261;BME280;11299;43.202;27.920;2022-09-09T07:36:24;101453.13;;;25.61;100.00
22261;BME280;11299;43.202;27.920;2022-09-09T07:38:56;101452.97;;;25.57;100.00
22261;BME280;11299;43.202;27.920;2022-09-09T07:41:31;101396.06;;;25.16;100.00
22261;BME280;11299;43.202;27.920;2022-09-09T07:44:03;101417.69;;;25.55;100.00
22261;BME280;11299;43.202;27.920;2022-09-09T07:46:29;101472.84;;;26.03;100.00
22261;BME280;11299;43.202;27.920;2022-09-09T07:48:56;101483.94;;;26.26;100.00
22261;BME280;11299;43.202;27.920;2022-09-09T07:51:27;101422.47;;;26.00;100.00
22261;BME280;11299;43.202;27.920;2022-09-09T07:53:54;101482.09;;;26.30;100.00
22261;BME280;11299;43.202;27.920;2022-09-09T07:56:20;101396.72;;;25.22;100.00
22261;BME280;11299;43.202;27.920;2022-09-09T07:58:50;101470.53;;;26.35;100.00
22261;BME280;11299;43.202;27.920;2022-09-09T08:01:19;101464.00;;;26.43;100.00
22261;BME280;11299;43.202;27.920;2022-09-09T08:03:46;101456.91;;;26.57;100.00
22261;BME280;11299;43.202;27.920;2022-09-09T08:06:12;101353.09;;;26.15;100.00
22261;BME280;11299;43.202;27.920;2022-09-09T08:08:40;101454.59;;;26.80;100.00
22261;BME280;11299;43.202;27.920;2022-09-09T08:11:16;101411.56;;;26.78;100.00
22261;BME280;11299;43.202;27.920;2022-09-09T08:13:43;101429.34;;;26.87;100.00
22261;BME280;11299;43.202;27.920;2022-09-09T08:16:14;101450.72;;;27.05;100.00
22261;BME280;11299;43.202;27.920;2022-09-09T08:18:41;101447.88;;;27.05;86.16
22261;BME280;11299;43.202;27.920;2022-09-09T08:21:11;101436.47;;;27.34;92.02
22261;BME280;11299;43.202;27.920;2022-09-09T08:23:39;101415.22;;;26.78;100.00
22261;BME280;11299;43.202;27.920;2022-09-09T08:26:28;101326.13;;;26.50;100.00
22261;BME280;11299;43.202;27.920;2022-09-09T08:28:56;101416.31;;;26.86;100.00
22261;BME280;11299;43.202;27.920;2022-09-09T08:31:33;101442.16;;;26.93;100.00
22261;BME280;11299;43.202;27.920;2022-09-09T08:34:00;101440.13;;;26.93;100.00
22261;BME280;11299;43.202;27.920;2022-09-09T08:36:29;101428.66;;;26.90;100.00
22261;BME280;11299;43.202;27.920;2022-09-09T08:38:57;101424.31;;;26.72;100.00
22261;BME280;11299;43.202;27.920;2022-09-09T08:41:35;101407.28;;;26.63;100.00
22261;BME280;11299;43.202;27.920;2022-09-09T08:55:29;101430.25;;;26.79;100.00
22261;BME280;11299;43.202;27.920;2022-09-09T08:58:09;101409.09;;;26.47;100.00
22261;BME280;11299;43.202;27.920;2022-09-09T09:06:57;101416.28;;;26.45;100.00
22261;BME280;11299;43.202;27.920;2022-09-09T09:12:39;101389.00;;;26.32;100.00
22261;BME280;11299;43.202;27.920;2022-09-09T09:15:16;101420.63;;;26.71;100.00
22261;BME280;11299;43.202;27.920;2022-09-09T09:17:43;101371.16;;;26.52;100.00
22261;BME280;11299;43.202;27.920;2022-09-09T09:20:14;101364.94;;;26.38;100.00
22261;BME280;11299;43.202;27.920;2022-09-09T09:22:51;101400.22;;;26.49;100.00
22261;BME280;11299;43.202;27.920;2022-09-09T09:25:44;101359.44;;;26.33;100.00
22261;BME280;11299;43.202;27.920;2022-09-09T09:28:16;101416.44;;;26.69;100.00
22261;BME280;11299;43.202;27.920;2022-09-09T09:30:55;101395.94;;;26.43;100.00
22261;BME280;11299;43.202;27.920;2022-09-09T09:33:38;101423.47;;;26.63;100.00
22261;BME280;11299;43.202;27.920;2022-09-09T09:36:11;101426.78;;;26.73;100.00
22261;BME280;11299;43.202;27.920;2022-09-09T09:38:55;101380.19;;;26.74;100.00
22261;BME280;11299;43.202;27.920;2022-09-09T09:41:34;101437.50;;;27.09;100.00
22261;BME280;11299;43.202;27.920;2022-09-09T09:44:01;101438.81;;;27.12;100.00
22261;BME280;11299;43.202;27.920;2022-09-09T09:46:27;101460.78;;;27.23;100.00
22261;BME280;11299;43.202;27.920;2022-09-09T09:49:11;101451.50;;;27.35;100.00
22261;BME280;11299;43.202;27.920;2022-09-09T09:51:39;101253.78;;;26.24;100.00
22261;BME280;11299;43.202;27.920;2022-09-09T09:56:46;101413.38;;;27.80;100.00
22261;BME280;11299;43.202;27.920;2022-09-09T10:01:53;101394.34;;;27.48;100.00
22261;BME280;11299;43.202;27.920;2022-09-09T10:04:21;101415.03;;;27.16;100.00
22261;BME280;11299;43.202;27.920;2022-09-09T10:06:49;101309.19;;;26.62;100.00
22261;BME280;11299;43.202;27.920;2022-09-09T10:09:31;101425.84;;;27.43;100.00
22261;BME280;11299;43.202;27.920;2022-09-09T10:17:30;101389.81;;;27.35;100.00
22261;BME280;11299;43.202;27.920;2022-09-09T10:22:51;101410.94;;;27.46;100.00
22261;BME280;11299;43.202;27.920;2022-09-09T10:25:48;101306.56;;;26.78;100.00
22261;BME280;11299;43.202;27.920;2022-09-09T10:31:43;101407.66;;;27.56;100.00
22261;BME280;11299;43.202;27.920;2022-09-09T10:34:19;101406.06;;;27.35;100.00
22261;BME280;11299;43.202;27.920;2022-09-09T10:36:50;101411.75;;;27.35;100.00
22261;BME280;11299;43.202;27.920;2022-09-09T10:41:57;101314.34;;;27.34;100.00
22261;BME280;11299;43.202;27.920;2022-09-09T10:48:03;101397.97;;;27.57;100.00
22261;BME280;11299;43.202;27.920;2022-09-09T10:53:22;101385.53;;;27.74;100.00
22261;BME280;11299;43.202;27.920;2022-09-09T10:55:55;101272.22;;;26.71;100.00
22261;BME280;11299;43.202;27.920;2022-09-09T10:58:28;101402.56;;;27.29;100.00
22261;BME280;11299;43.202;27.920;2022-09-09T11:01:06;101372.94;;;27.18;100.00
22261;BME280;11299;43.202;27.920;2022-09-09T11:03:37;101404.50;;;27.37;100.00
22261;BME280;11299;43.202;27.920;2022-09-09T11:06:06;101374.72;;;27.43;100.00
22261;BME280;11299;43.202;27.920;2022-09-09T11:08:38;101054.72;;;25.44;100.00
22261;BME280;11299;43.202;27.920;2022-09-09T11:16:24;101389.44;;;27.69;100.00
22261;BME280;11299;43.202;27.920;2022-09-09T11:18:57;101435.81;;;27.49;100.00
22261;BME280;11299;43.202;27.920;2022-09-09T11:21:30;101349.78;;;27.28;100.00
22261;BME280;11299;43.202;27.920;2022-09-09T11:24:03;101413.97;;;27.74;100.00
22261;BME280;11299;43.202;27.920;2022-09-09T11:26:44;101364.56;;;27.66;100.00
22261;BME280;11299;43.202;27.920;2022-09-09T11:34:32;101411.06;;;27.17;100.00
22261;BME280;11299;43.202;27.920;2022-09-09T11:39:58;101427.81;;;26.89;100.00
22261;BME280;11299;43.202;27.920;2022-09-09T11:42:26;101389.75;;;26.70;100.00
22261;BME280;11299;43.202;27.920;2022-09-09T11:44:52;101359.28;;;26.79;100.00
22261;BME280;11299;43.202;27.920;2022-09-09T11:47:27;101256.59;;;26.24;100.00
22261;BME280;11299;43.202;27.920;2022-09-09T11:52:43;101382.34;;;26.28;100.00
22261;BME280;11299;43.202;27.920;2022-09-09T11:55:20;101390.88;;;26.77;100.00
22261;BME280;11299;43.202;27.920;2022-09-09T11:58:17;101404.00;;;26.82;100.00
22261;BME280;11299;43.202;27.920;2022-09-09T12:00:47;101376.81;;;26.81;100.00
22261;BME280;11299;43.202;27.920;2022-09-09T12:06:29;101389.75;;;26.70;100.00
22261;BME280;11299;43.202;27.920;2022-09-09T12:09:07;101384.09;;;26.70;100.00
22261;BME280;11299;43.202;27.920;2022-09-09T12:11:33;101373.59;;;26.41;100.00
22261;BME280;11299;43.202;27.920;2022-09-09T12:14:00;101372.88;;;26.73;100.00
22261;BME280;11299;43.202;27.920;2022-09-09T12:16:36;101367.66;;;26.96;100.00
22261;BME280;11299;43.202;27.920;2022-09-09T12:19:18;101340.97;;;27.09;100.00
22261;BME280;11299;43.202;27.920;2022-09-09T12:25:21;101358.03;;;27.42;100.00
22261;BME280;11299;43.202;27.920;2022-09-09T12:28:11;101327.50;;;27.18;100.00
22261;BME280;11299;43.202;27.920;2022-09-09T12:33:19;101350.69;;;26.87;100.00
22261;BME280;11299;43.202;27.920;2022-09-09T12:35:51;101353.59;;;26.58;100.00
22261;BME280;11299;43.202;27.920;2022-09-09T12:38:32;101353.50;;;26.67;100.00
22261;BME280;11299;43.202;27.920;2022-09-09T12:40:59;101345.19;;;26.70;100.00
22261;BME280;11299;43.202;27.920;2022-09-09T12:43:26;101335.88;;;26.82;100.00
22261;BME280;11299;43.202;27.920;2022-09-09T12:45:56;101141.97;;;25.71;100.00
22261;BME280;11299;43.202;27.920;2022-09-09T12:48:29;101196.41;;;26.39;100.00
22261;BME280;11299;43.202;27.920;2022-09-09T12:50:57;101319.41;;;26.96;100.00
22261;BME280;11299;43.202;27.920;2022-09-09T12:53:36;101358.25;;;27.16;100.00
22261;BME280;11299;43.202;27.920;2022-09-09T12:56:06;101343.56;;;27.14;100.00
22261;BME280;11299;43.202;27.920;2022-09-09T12:58:33;101325.59;;;27.10;100.00
22261;BME280;11299;43.202;27.920;2022-09-09T13:01:01;101333.84;;;27.03;100.00
22261;BME280;11299;43.202;27.920;2022-09-09T13:03:31;101326.06;;;26.79;100.00
22261;BME280;11299;43.202;27.920;2022-09-09T13:06:11;101335.50;;;26.71;100.00
22261;BME280;11299;43.202;27.920;2022-09-09T13:08:37;101306.03;;;26.55;100.00
22261;BME280;11299;43.202;27.920;2022-09-09T13:11:09;101252.16;;;26.35;100.00
22261;BME280;11299;43.202;27.920;2022-09-09T13:13:37;101327.84;;;26.84;100.00
22261;BME280;11299;43.202;27.920;2022-09-09T13:16:05;101204.72;;;26.02;100.00
22261;BME280;11299;43.202;27.920;2022-09-09T13:18:40;101326.50;;;26.69;100.00
22261;BME280;11299;43.202;27.920;2022-09-09T13:21:06;101337.69;;;26.45;100.00
22261;BME280;11299;43.202;27.920;2022-09-09T13:23:37;101327.94;;;26.75;100.00
22261;BME280;11299;43.202;27.920;2022-09-09T13:28:30;101318.13;;;26.73;100.00
22261;BME280;11299;43.202;27.920;2022-09-09T13:31:04;101303.97;;;27.18;100.00
22261;BME280;11299;43.202;27.920;2022-09-09T13:33:38;101317.66;;;27.36;100.00
22261;BME280;11299;43.202;27.920;2022-09-09T13:36:09;101300.06;;;27.22;100.00
22261;BME280;11299;43.202;27.920;2022-09-09T13:38:56;101300.97;;;27.02;100.00
22261;BME280;11299;43.202;27.920;2022-09-09T13:41:24;101266.75;;;26.66;100.00
22261;BME280;11299;43.202;27.920;2022-09-09T13:43:50;101287.88;;;26.77;100.00
22261;BME280;11299;43.202;27.920;2022-09-09T13:46:40;101273.94;;;26.63;100.00
22261;BME280;11299;43.202;27.920;2022-09-09T13:51:45;101290.31;;;26.46;100.00
22261;BME280;11299;43.202;27.920;2022-09-09T13:54:14;101293.59;;;26.27;100.00
22261;BME280;11299;43.202;27.920;2022-09-09T13:56:41;101311.94;;;26.30;100.00
22261;BME280;11299;43.202;27.920;2022-09-09T13:59:12;101273.22;;;26.34;100.00
22261;BME280;11299;43.202;27.920;2022-09-09T14:01:39;101318.97;;;26.65;100.00
22261;BME280;11299;43.202;27.920;2022-09-09T14:04:04;101307.38;;;26.58;100.00
22261;BME280;11299;43.202;27.920;2022-09-09T14:06:35;101292.44;;;26.49;100.00
22261;BME280;11299;43.202;27.920;2022-09-09T14:09:02;101315.41;;;26.35;100.00
22261;BME280;11299;43.202;27.920;2022-09-09T14:11:28;101309.50;;;26.20;100.00
22261;BME280;11299;43.202;27.920;2022-09-09T14:13:54;101295.06;;;26.54;100.00
22261;BME280;11299;43.202;27.920;2022-09-09T14:16:19;101272.97;;;26.80;100.00
22261;BME280;11299;43.202;27.920;2022-09-09T14:18:47;101282.38;;;27.05;100.00
22261;BME280;11299;43.202;27.920;2022-09-09T14:21:12;101258.63;;;27.09;100.00
22261;BME280;11299;43.202;27.920;2022-09-09T14:23:38;101237.59;;;27.22;100.00
22261;BME280;11299;43.202;27.920;2022-09-09T14:26:07;101260.34;;;27.46;100.00
22261;BME280;11299;43.202;27.920;2022-09-09T14:28:32;101270.53;;;27.59;100.00
22261;BME280;11299;43.202;27.920;2022-09-09T14:31:00;101158.34;;;27.53;100.00
22261;BME280;11299;43.202;27.920;2022-09-09T14:33:26;101256.50;;;28.27;100.00
22261;BME280;11299;43.202;27.920;2022-09-09T14:36:01;101253.84;;;28.46;100.00
22261;BME280;11299;43.202;27.920;2022-09-09T14:38:32;101223.94;;;28.52;100.00
22261;BME280;11299;43.202;27.920;2022-09-09T14:40:59;101254.66;;;28.86;100.00
22261;BME280;11299;43.202;27.920;2022-09-09T14:43:25;101252.31;;;28.76;100.00